Time;durP1;ratioP1;P1;durP2;ratioP2;P2;SDS_P1;SDS_P2;PMS_P1;PMS_P2;Temp;Humidity;BMP_temperature;BMP_pressure;BME280_temperature;BME280_humidity;BME280_pressure;Samples;Min_cycle;Max_cycle;Signal;HPM_P1;HPM_P2
2022/10/08 00:00:06;;;;;;;6.88;1.08;;;;;;;7.05;100.00;101182.41;5033779;28;20382;-52
2022/10/08 00:02:32;;;;;;;12.07;1.48;;;;;;;7.05;100.00;101189.47;5032763;28;20033;-49
2022/10/08 00:04:57;;;;;;;5.47;1.17;;;;;;;7.04;100.00;101199.19;5041922;28;20040;-51
2022/10/08 00:07:23;;;;;;;4.35;1.45;;;;;;;6.97;100.00;101208.69;5030072;28;20030;-50
2022/10/08 00:09:48;;;;;;;2.63;0.55;;;;;;;6.92;100.00;101213.59;5035574;28;20668;-51
2022/10/08 00:12:14;;;;;;;7.93;0.30;;;;;;;6.84;100.00;101206.41;5041813;28;20378;-54
2022/10/08 00:14:39;;;;;;;9.77;1.45;;;;;;;6.82;100.00;101218.09;5029757;28;20026;-52
2022/10/08 00:17:05;;;;;;;1.40;0.75;;;;;;;6.89;100.00;101219.13;5034913;28;20057;-52
2022/10/08 00:19:31;;;;;;;3.78;2.05;;;;;;;6.83;100.00;101220.56;5034843;28;20029;-51
2022/10/08 00:21:56;;;;;;;4.20;0.43;;;;;;;6.77;100.00;101219.34;5034640;28;20513;-54
2022/10/08 00:24:22;;;;;;;3.63;0.38;;;;;;;6.72;100.00;101208.41;5046763;28;20040;-52
2022/10/08 00:26:49;;;;;;;3.13;0.82;;;;;;;6.69;100.00;101213.16;5029990;28;20049;-52
2022/10/08 00:29:17;;;;;;;4.25;0.77;;;;;;;6.80;100.00;101214.75;5038845;28;20025;-51
2022/10/08 00:31:45;;;;;;;13.07;2.35;;;;;;;7.00;100.00;101229.47;5041031;28;20060;-52
2022/10/08 00:34:17;;;;;;;3.90;1.17;;;;;;;7.34;100.00;101234.91;5032368;28;20576;-53
2022/10/08 00:36:43;;;;;;;7.43;0.85;;;;;;;7.33;100.00;101229.78;5042254;28;20026;-49
2022/10/08 00:39:12;;;;;;;10.57;1.17;;;;;;;7.27;100.00;101227.75;5037504;28;20033;-53
2022/10/08 00:41:39;;;;;;;5.32;1.13;;;;;;;7.37;100.00;101236.41;5044762;28;20021;-49
2022/10/08 00:44:41;;;;;;;5.20;0.28;;;;;;;7.20;100.00;101244.19;5039859;28;20221;-51
2022/10/08 00:47:18;;;;;;;12.38;2.50;;;;;;;7.15;100.00;101243.81;5037377;28;20501;-55
2022/10/08 00:49:45;;;;;;;1.42;1.17;;;;;;;6.99;100.00;101243.63;5037931;28;20106;-54
2022/10/08 00:52:10;;;;;;;6.72;1.85;;;;;;;6.88;100.00;101243.84;5042314;28;20054;-54
2022/10/08 00:54:36;;;;;;;8.05;0.73;;;;;;;6.90;100.00;101241.91;5036134;28;20112;-50
2022/10/08 00:57:01;;;;;;;1.70;0.50;;;;;;;6.99;100.00;101246.25;5038620;28;20394;-51
2022/10/08 00:59:27;;;;;;;6.90;1.48;;;;;;;7.06;100.00;101238.59;5033964;28;20164;-51
2022/10/08 01:01:53;;;;;;;5.75;0.35;;;;;;;7.01;100.00;101254.84;5030672;28;20032;-49
2022/10/08 01:04:19;;;;;;;4.97;0.75;;;;;;;6.91;100.00;101254.09;5037324;28;20390;-53
2022/10/08 01:06:59;;;;;;;2.95;1.20;;;;;;;6.93;100.00;101257.41;5035326;28;20030;-50
2022/10/08 01:09:34;;;;;;;11.43;2.90;;;;;;;6.94;100.00;101253.78;5039734;28;20080;-49
2022/10/08 01:12:05;;;;;;;2.38;0.20;;;;;;;6.78;100.00;101259.72;5040962;28;20517;-52
2022/10/08 01:14:59;;;;;;;9.23;2.38;;;;;;;6.71;100.00;101259.47;5028238;28;20041;-53
2022/10/08 01:17:47;;;;;;;1.67;0.20;;;;;;;6.74;100.00;101261.81;5038751;28;20036;-52
2022/10/08 01:20:32;;;;;;;4.50;0.20;;;;;;;6.87;100.00;101263.28;5033613;28;20455;-50
2022/10/08 01:23:03;;;;;;;1.17;0.40;;;;;;;6.92;100.00;101259.22;5029838;28;20030;-50
2022/10/08 01:25:34;;;;;;;2.03;0.55;;;;;;;7.00;100.00;101263.75;5047158;28;20406;-50
2022/10/08 01:28:26;;;;;;;5.72;1.45;;;;;;;7.06;100.00;101267.59;5028633;28;20048;-49
2022/10/08 01:30:57;;;;;;;;;;;;;;;7.07;100.00;101259.53;5036913;28;20044;-52
2022/10/08 01:33:31;;;;;;;7.78;0.47;;;;;;;7.04;100.00;101267.75;5031895;28;19917;-51
2022/10/08 01:35:58;;;;;;;4.03;0.40;;;;;;;6.88;100.00;101264.94;5040046;28;20390;-50
2022/10/08 01:38:29;;;;;;;1.27;1.15;;;;;;;6.83;100.00;101264.53;5032250;28;20477;-50
2022/10/08 01:40:58;;;;;;;5.75;1.38;;;;;;;6.92;100.00;101264.50;5043321;28;20033;-51
2022/10/08 01:43:27;;;;;;;3.65;1.20;;;;;;;6.77;100.00;101266.78;5042887;28;20078;-55
2022/10/08 01:45:58;;;;;;;10.85;1.50;;;;;;;6.83;100.00;101264.53;5040385;28;20385;-51
2022/10/08 01:48:29;;;;;;;3.47;0.15;;;;;;;6.88;100.00;101272.84;5043913;28;20033;-53
2022/10/08 01:51:07;;;;;;;7.65;0.45;;;;;;;6.70;100.00;101272.78;5042921;28;20167;-53
2022/10/08 01:53:38;;;;;;;7.90;0.22;;;;;;;6.44;100.00;101272.63;5034643;28;20090;-52
2022/10/08 01:56:08;;;;;;;4.03;0.45;;;;;;;6.33;100.00;101278.91;5037092;28;20051;-52
2022/10/08 01:58:54;;;;;;;4.85;1.23;;;;;;;6.26;100.00;101281.28;5040398;28;20037;-55
2022/10/08 02:01:48;;;;;;;3.13;0.50;;;;;;;6.15;100.00;101286.72;5040843;28;20070;-50
2022/10/08 02:04:32;;;;;;;3.40;1.25;;;;;;;5.98;100.00;101283.00;5041789;28;20045;-53
2022/10/08 02:07:04;;;;;;;1.10;0.20;;;;;;;5.95;100.00;101272.75;5035237;28;20115;-55
2022/10/08 02:09:32;;;;;;;2.72;0.45;;;;;;;5.86;100.00;101274.41;5046837;28;20075;-51
2022/10/08 02:11:57;;;;;;;3.83;0.60;;;;;;;5.79;100.00;101275.13;5042285;28;20021;-53
2022/10/08 02:14:25;;;;;;;1.08;0.32;;;;;;;5.77;100.00;101282.31;5032174;28;20499;-50
2022/10/08 02:17:06;;;;;;;5.95;0.60;;;;;;;5.74;100.00;101286.06;5042188;28;20114;-49
2022/10/08 02:19:43;;;;;;;3.95;0.40;;;;;;;5.72;100.00;101289.81;5043053;28;20033;-49
2022/10/08 02:22:12;;;;;;;8.02;0.93;;;;;;;5.63;100.00;101291.47;5037392;28;20098;-50
2022/10/08 02:24:56;;;;;;;4.57;1.48;;;;;;;5.52;100.00;101281.91;5041206;28;20025;-54
2022/10/08 02:27:28;;;;;;;3.03;0.60;;;;;;;5.53;100.00;101290.66;5034753;28;20029;-54
2022/10/08 02:30:06;;;;;;;2.88;0.28;;;;;;;5.47;100.00;101292.00;5038385;28;20037;-52
2022/10/08 02:32:48;;;;;;;3.03;0.30;;;;;;;5.37;100.00;101289.38;5048438;28;20095;-51
2022/10/08 02:35:21;;;;;;;4.18;0.60;;;;;;;5.30;100.00;101292.72;5031553;28;20104;-49
2022/10/08 02:37:57;;;;;;;6.40;1.45;;;;;;;5.25;100.00;101290.47;5042445;28;20033;-53
2022/10/08 02:40:23;;;;;;;1.58;0.20;;;;;;;5.25;100.00;101287.84;5039518;28;20505;-52
2022/10/08 02:42:54;;;;;;;1.73;0.20;;;;;;;5.27;100.00;101299.06;5037225;28;20033;-51
2022/10/08 02:45:32;;;;;;;1.13;0.30;;;;;;;5.23;100.00;101302.91;5041586;28;20024;-55
2022/10/08 02:48:06;;;;;;;3.30;0.28;;;;;;;5.25;100.00;101298.38;5034711;28;20033;-51
2022/10/08 02:50:34;;;;;;;2.28;0.40;;;;;;;5.23;100.00;101295.03;5037328;28;20038;-51
2022/10/08 02:53:00;;;;;;;1.30;0.35;;;;;;;5.21;100.00;101300.44;5039008;28;20036;-53
2022/10/08 02:55:35;;;;;;;4.15;1.10;;;;;;;5.19;100.00;101297.13;5041858;28;20374;-52
2022/10/08 02:58:05;;;;;;;2.13;0.20;;;;;;;5.20;100.00;101297.94;5034134;28;20029;-52
2022/10/08 03:00:36;;;;;;;1.45;0.77;;;;;;;5.14;100.00;101299.31;5042767;28;20029;-53
2022/10/08 03:03:10;;;;;;;2.88;0.70;;;;;;;5.11;100.00;101311.88;5033818;28;20061;-50
2022/10/08 03:05:37;;;;;;;1.15;0.32;;;;;;;5.13;100.00;101312.59;5038230;28;20029;-48
2022/10/08 03:08:04;;;;;;;1.40;0.63;;;;;;;5.02;100.00;101316.16;5035859;28;20481;-51
2022/10/08 03:10:34;;;;;;;3.70;0.50;;;;;;;4.99;100.00;101313.81;5040548;28;20025;-50
2022/10/08 03:13:03;;;;;;;0.80;0.28;;;;;;;4.96;100.00;101319.34;5041018;28;20292;-51
2022/10/08 03:15:32;;;;;;;3.35;0.20;;;;;;;4.93;100.00;101320.44;5036405;28;20034;-52
2022/10/08 03:17:59;;;;;;;0.32;0.13;;;;;;;5.03;100.00;101321.31;5033315;28;20679;-50
2022/10/08 03:20:25;;;;;;;0.98;0.15;;;;;;;4.97;100.00;101321.00;5041309;28;20028;-48
2022/10/08 03:22:54;;;;;;;0.73;0.70;;;;;;;4.88;100.00;101325.25;5045583;28;20410;-55
2022/10/08 03:25:19;;;;;;;1.20;0.60;;;;;;;4.82;100.00;101320.53;5042624;28;20037;-53
2022/10/08 03:27:44;;;;;;;1.17;0.45;;;;;;;4.78;100.00;101324.41;5035298;28;20099;-52
2022/10/08 03:30:10;;;;;;;2.42;0.30;;;;;;;4.83;100.00;101324.81;5043656;28;20037;-52
2022/10/08 03:32:36;;;;;;;0.20;0.10;;;;;;;4.84;100.00;101315.16;5042260;28;20029;-53
2022/10/08 03:35:01;;;;;;;2.05;0.20;;;;;;;4.84;100.00;101329.09;5035147;28;20506;-49
2022/10/08 03:37:26;;;;;;;0.55;0.00;;;;;;;4.77;100.00;101328.78;5035294;28;20085;-50
2022/10/08 03:39:52;;;;;;;4.75;0.28;;;;;;;4.74;100.00;101325.63;5047369;28;20098;-50
2022/10/08 03:42:17;;;;;;;1.05;0.43;;;;;;;4.73;100.00;101330.03;5045634;28;20494;-51
2022/10/08 03:44:43;;;;;;;0.50;0.20;;;;;;;4.69;100.00;101343.56;5033976;28;20037;-51
2022/10/08 03:47:08;;;;;;;1.67;0.28;;;;;;;4.70;100.00;101347.84;5032882;28;20086;-51
2022/10/08 03:49:33;;;;;;;0.98;0.00;;;;;;;4.67;100.00;101345.50;5036810;28;20064;-50
2022/10/08 03:51:59;;;;;;;2.60;1.30;;;;;;;4.59;100.00;101343.50;5043096;28;20103;-48
2022/10/08 03:54:24;;;;;;;0.88;0.08;;;;;;;4.56;100.00;101346.41;5039101;28;20056;-53
2022/10/08 03:56:49;;;;;;;5.40;0.00;;;;;;;4.47;100.00;101349.84;5035338;28;20038;-51
2022/10/08 03:59:15;;;;;;;0.75;0.03;;;;;;;4.40;100.00;101352.13;5038901;28;20111;-50
2022/10/08 04:01:40;;;;;;;5.93;0.13;;;;;;;4.37;100.00;101355.84;5035875;28;20033;-50
2022/10/08 04:04:05;;;;;;;1.10;0.55;;;;;;;4.42;100.00;101360.72;5029338;28;20079;-48
2022/10/08 04:06:31;;;;;;;0.38;0.10;;;;;;;4.51;100.00;101361.72;5036914;28;20496;-50
2022/10/08 04:08:59;;;;;;;5.25;0.88;;;;;;;4.50;100.00;101368.78;5039374;28;20486;-50
2022/10/08 04:11:26;;;;;;;1.65;0.13;;;;;;;4.43;100.00;101370.25;5040318;28;20077;-48
2022/10/08 04:13:52;;;;;;;2.53;0.08;;;;;;;4.42;100.00;101371.22;5034296;28;20432;-54
2022/10/08 04:16:18;;;;;;;1.45;0.20;;;;;;;4.33;100.00;101390.38;5033676;28;20024;-50
2022/10/08 04:18:45;;;;;;;5.07;0.85;;;;;;;4.25;100.00;101398.03;5031713;28;20029;-52
2022/10/08 04:21:13;;;;;;;1.40;0.95;;;;;;;4.15;100.00;101414.53;5031928;28;20033;-50
2022/10/08 04:23:39;;;;;;;7.22;2.13;;;;;;;4.09;100.00;101412.44;5034487;28;20040;-52
2022/10/08 04:26:06;;;;;;;2.00;0.10;;;;;;;4.05;100.00;101415.44;5036062;28;20124;-54
2022/10/08 04:28:34;;;;;;;0.10;0.03;;;;;;;3.96;100.00;101410.94;5038099;28;20091;-49
2022/10/08 04:31:09;;;;;;;0.25;0.00;;;;;;;3.94;100.00;101421.56;5028032;28;20227;-55
2022/10/08 04:33:35;;;;;;;1.45;0.05;;;;;;;3.92;100.00;101426.94;5036453;28;20040;-51
2022/10/08 04:36:05;;;;;;;2.90;0.00;;;;;;;3.94;100.00;101418.94;5032111;28;20496;-49
2022/10/08 04:38:30;;;;;;;0.75;0.30;;;;;;;3.99;100.00;101424.66;5035035;28;20033;-54
2022/10/08 04:41:16;;;;;;;0.22;0.22;;;;;;;4.05;100.00;101423.31;5032812;28;20112;-53
2022/10/08 04:43:43;;;;;;;2.72;0.17;;;;;;;4.11;100.00;101422.81;5033925;28;20514;-52
2022/10/08 04:46:12;;;;;;;3.83;0.10;;;;;;;4.11;100.00;101423.66;5035791;28;20387;-51
2022/10/08 04:48:38;;;;;;;1.98;0.25;;;;;;;4.15;100.00;101432.09;5043643;28;20036;-51
2022/10/08 04:51:06;;;;;;;2.65;0.00;;;;;;;4.26;100.00;101432.06;5035585;28;20029;-53
2022/10/08 04:53:32;;;;;;;7.82;0.30;;;;;;;4.26;100.00;101429.44;5033980;28;20110;-49
2022/10/08 04:56:26;;;;;;;0.20;0.10;;;;;;;4.29;100.00;101439.69;5034031;28;20029;-50
2022/10/08 04:58:54;;;;;;;2.45;0.20;;;;;;;4.42;100.00;101433.41;5032887;28;20100;-51
2022/10/08 05:01:19;;;;;;;0.70;0.15;;;;;;;4.36;100.00;101445.25;5035539;28;20056;-48
2022/10/08 05:03:47;;;;;;;1.80;0.10;;;;;;;4.30;100.00;101440.50;5029352;28;20110;-49
2022/10/08 05:06:15;;;;;;;3.35;0.90;;;;;;;4.22;100.00;101450.81;5030502;28;20035;-52
2022/10/08 05:08:41;;;;;;;5.78;1.17;;;;;;;4.19;100.00;101453.69;5037091;28;20039;-52
2022/10/08 05:11:06;;;;;;;8.07;1.27;;;;;;;4.20;100.00;101450.09;5031548;28;20664;-50
2022/10/08 05:13:32;;;;;;;4.78;0.35;;;;;;;4.35;100.00;101459.34;5030868;28;20131;-49
2022/10/08 05:16:06;;;;;;;0.00;0.00;;;;;;;4.36;100.00;101456.59;5037758;28;20034;-49
2022/10/08 05:18:32;;;;;;;2.47;0.35;;;;;;;4.65;100.00;101465.66;5029529;28;20036;-51
2022/10/08 05:21:05;;;;;;;1.58;0.30;;;;;;;4.68;100.00;101470.63;5040602;28;20565;-54
2022/10/08 05:23:31;;;;;;;3.08;0.50;;;;;;;4.64;100.00;101475.31;5026499;28;20033;-50
2022/10/08 05:25:56;;;;;;;4.05;0.30;;;;;;;4.64;100.00;101482.34;5033377;28;20033;-51
2022/10/08 05:28:22;;;;;;;3.40;0.28;;;;;;;4.87;100.00;101478.63;5031457;28;20022;-52
2022/10/08 05:30:47;;;;;;;2.95;0.13;;;;;;;4.84;100.00;101486.78;5033037;28;20025;-55
2022/10/08 05:33:12;;;;;;;0.30;0.00;;;;;;;4.78;100.00;101484.69;5033385;28;20024;-51
2022/10/08 05:35:38;;;;;;;0.77;0.00;;;;;;;4.74;100.00;101488.50;5032296;28;20067;-51
2022/10/08 05:38:04;;;;;;;3.38;0.52;;;;;;;4.88;100.00;101496.06;5037268;28;20033;-48
2022/10/08 05:40:29;;;;;;;1.85;0.68;;;;;;;4.92;100.00;101499.28;5030779;28;20025;-50
2022/10/08 05:42:55;;;;;;;4.43;0.77;;;;;;;4.90;100.00;101507.28;5035923;28;20422;-52
2022/10/08 05:45:21;;;;;;;10.80;1.67;;;;;;;4.91;100.00;101503.69;5035921;28;20056;-50
2022/10/08 05:47:47;;;;;;;6.35;0.38;;;;;;;4.89;100.00;101504.78;5033305;28;20043;-49
2022/10/08 05:50:13;;;;;;;0.85;0.10;;;;;;;4.86;100.00;101513.75;5031304;28;20037;-49
2022/10/08 05:52:38;;;;;;;1.80;0.10;;;;;;;4.76;100.00;101507.63;5038352;28;20394;-52
2022/10/08 05:55:04;;;;;;;1.52;0.90;;;;;;;4.73;100.00;101505.25;5038548;28;20089;-50
2022/10/08 05:57:30;;;;;;;6.85;0.55;;;;;;;4.61;100.00;101511.50;5041170;28;20711;-48
2022/10/08 05:59:55;;;;;;;3.42;0.13;;;;;;;4.46;100.00;101517.06;5042460;28;20043;-52
2022/10/08 06:02:21;;;;;;;3.92;0.20;;;;;;;4.39;100.00;101521.16;5041415;28;20040;-52
2022/10/08 06:04:50;;;;;;;4.95;0.43;;;;;;;4.34;100.00;101525.97;5037965;28;20116;-51
2022/10/08 06:07:15;;;;;;;1.63;0.75;;;;;;;4.28;100.00;101529.88;5051443;28;20017;-50
2022/10/08 06:09:41;;;;;;;2.53;0.20;;;;;;;4.27;100.00;101532.66;5037161;28;20117;-50
2022/10/08 06:12:08;;;;;;;6.90;1.17;;;;;;;4.21;100.00;101535.75;5044555;28;20027;-49
2022/10/08 06:14:34;;;;;;;0.70;0.35;;;;;;;4.21;100.00;101535.75;5045671;28;20052;-50
2022/10/08 06:17:00;;;;;;;3.67;0.15;;;;;;;4.25;100.00;101539.81;5044077;28;20025;-51
2022/10/08 06:19:25;;;;;;;1.17;0.57;;;;;;;4.23;100.00;101544.34;5048197;28;20121;-49
2022/10/08 06:21:51;;;;;;;1.38;0.63;;;;;;;4.35;100.00;101548.63;5045901;28;20039;-51
2022/10/08 06:24:16;;;;;;;3.72;0.10;;;;;;;4.29;100.00;101557.00;5044652;28;20044;-55
2022/10/08 06:26:43;;;;;;;1.27;0.03;;;;;;;4.28;100.00;101557.94;5046151;28;20056;-48
2022/10/08 06:29:14;;;;;;;2.03;0.25;;;;;;;4.48;100.00;101554.53;5038336;28;20029;-53
2022/10/08 06:31:40;;;;;;;2.90;0.20;;;;;;;4.50;100.00;101564.94;5045150;28;20182;-53
2022/10/08 06:34:05;;;;;;;1.65;0.10;;;;;;;4.53;100.00;101557.63;5034184;28;20033;-54
2022/10/08 06:36:33;;;;;;;0.77;0.08;;;;;;;4.57;100.00;101553.78;5042398;28;20025;-53
2022/10/08 06:39:00;;;;;;;4.07;0.20;;;;;;;4.53;100.00;101555.00;5039713;28;20024;-51
2022/10/08 06:41:29;;;;;;;4.03;0.93;;;;;;;4.53;100.00;101562.88;5045068;28;20024;-51
2022/10/08 06:43:54;;;;;;;1.65;0.17;;;;;;;4.54;100.00;101572.44;5038954;28;20493;-50
2022/10/08 06:46:20;;;;;;;3.85;0.77;;;;;;;4.52;100.00;101570.91;5049401;28;20037;-53
2022/10/08 06:48:46;;;;;;;3.33;0.63;;;;;;;4.47;100.00;101573.88;5045538;28;20028;-52
2022/10/08 06:51:13;;;;;;;2.42;0.55;;;;;;;4.51;100.00;101584.97;5041896;28;20041;-55
2022/10/08 06:53:40;;;;;;;2.08;0.30;;;;;;;4.50;100.00;101591.19;5044718;28;20025;-51
2022/10/08 06:56:16;;;;;;;2.53;0.20;;;;;;;4.59;100.00;101593.91;5041255;28;20470;-54
2022/10/08 06:58:43;;;;;;;5.38;0.98;;;;;;;4.66;100.00;101596.84;5044331;28;20029;-49
2022/10/08 07:01:13;;;;;;;5.20;0.30;;;;;;;4.67;100.00;101613.44;5034154;28;20511;-55
2022/10/08 07:03:39;;;;;;;3.13;0.45;;;;;;;4.58;100.00;101602.75;5042252;28;20037;-51
2022/10/08 07:06:08;;;;;;;3.25;1.25;;;;;;;4.68;100.00;101613.34;5040900;28;20039;-51
2022/10/08 07:08:37;;;;;;;1.88;0.95;;;;;;;4.70;100.00;101621.94;5044105;28;20111;-52
2022/10/08 07:11:15;;;;;;;2.28;0.50;;;;;;;4.70;100.00;101621.06;5036196;28;20033;-54
2022/10/08 07:13:42;;;;;;;4.55;0.43;;;;;;;4.69;100.00;101619.41;5038353;28;20025;-49
2022/10/08 07:16:16;;;;;;;0.47;0.20;;;;;;;4.81;100.00;101623.69;5043738;28;20076;-50
2022/10/08 07:18:42;;;;;;;2.35;0.40;;;;;;;4.78;100.00;101627.41;5036144;28;20437;-53
2022/10/08 07:21:11;;;;;;;2.58;0.60;;;;;;;4.84;100.00;101639.19;5032664;28;20044;-50
2022/10/08 07:23:36;;;;;;;3.08;0.47;;;;;;;4.91;100.00;101634.28;5036804;28;20032;-53
2022/10/08 07:26:09;;;;;;;1.45;0.57;;;;;;;4.91;100.00;101640.38;5039009;28;20044;-53
2022/10/08 07:28:37;;;;;;;9.85;0.57;;;;;;;5.07;100.00;101645.19;5041125;28;20025;-51
2022/10/08 07:31:14;;;;;;;21.48;1.88;;;;;;;5.41;100.00;101651.09;5037588;28;20671;-52
2022/10/08 07:33:40;;;;;;;3.00;1.27;;;;;;;5.76;100.00;101646.47;5034645;28;20025;-52
2022/10/08 07:36:13;;;;;;;6.85;0.52;;;;;;;6.11;100.00;101656.59;5031958;28;20029;-51
2022/10/08 07:38:39;;;;;;;6.03;1.38;;;;;;;6.18;100.00;101663.03;5036557;28;20520;-50
2022/10/08 07:41:06;;;;;;;3.78;0.43;;;;;;;6.39;100.00;101656.84;5033704;28;20535;-49
2022/10/08 07:43:31;;;;;;;2.00;0.52;;;;;;;6.53;100.00;101661.72;5039691;28;20039;-55
2022/10/08 07:45:57;;;;;;;4.15;0.75;;;;;;;6.66;100.00;101674.63;5044010;28;20394;-50
2022/10/08 07:48:22;;;;;;;11.45;2.47;;;;;;;6.92;100.00;101674.97;5038900;28;20071;-51
2022/10/08 07:50:47;;;;;;;3.83;0.73;;;;;;;7.02;100.00;101682.88;5037576;28;20033;-51
2022/10/08 07:53:13;;;;;;;7.53;1.10;;;;;;;7.22;100.00;101684.53;5036386;28;20035;-51
2022/10/08 07:55:38;;;;;;;6.75;1.23;;;;;;;7.29;100.00;101679.53;5039949;28;20041;-50
2022/10/08 07:58:04;;;;;;;2.72;0.98;;;;;;;7.41;100.00;101686.34;5037941;28;20537;-53
2022/10/08 08:00:29;;;;;;;10.55;1.75;;;;;;;7.50;100.00;101682.84;5033643;28;20033;-51
2022/10/08 08:02:54;;;;;;;13.10;2.40;;;;;;;7.67;100.00;101680.44;5033938;28;20029;-53
2022/10/08 08:05:20;;;;;;;3.67;0.73;;;;;;;7.79;100.00;101688.06;5037531;28;20099;-55
2022/10/08 08:07:45;;;;;;;5.25;0.40;;;;;;;7.96;100.00;101686.47;5032402;28;20024;-52
2022/10/08 08:10:11;;;;;;;4.93;0.30;;;;;;;8.08;100.00;101684.50;5029130;28;20060;-50
2022/10/08 08:12:36;;;;;;;7.00;1.08;;;;;;;8.22;100.00;101684.00;5037538;28;20481;-52
2022/10/08 08:15:01;;;;;;;3.83;0.57;;;;;;;8.31;100.00;101692.88;5026348;28;20418;-49
2022/10/08 08:17:27;;;;;;;5.68;0.85;;;;;;;8.39;100.00;101689.50;5029974;28;20025;-54
2022/10/08 08:19:52;;;;;;;2.08;0.52;;;;;;;8.48;100.00;101688.66;5029462;28;20074;-49
2022/10/08 08:22:18;;;;;;;2.58;0.63;;;;;;;8.60;100.00;101694.56;5032632;28;20084;-53
2022/10/08 08:24:43;;;;;;;8.75;0.55;;;;;;;8.72;100.00;101693.38;5033281;28;20021;-52
2022/10/08 08:27:08;;;;;;;7.93;1.73;;;;;;;8.87;100.00;101694.50;5033275;28;20045;-51
2022/10/08 08:29:34;;;;;;;6.03;0.60;;;;;;;8.96;100.00;101692.81;5032844;28;20029;-50
2022/10/08 08:31:59;;;;;;;5.72;0.82;;;;;;;9.03;100.00;101690.38;5033000;28;20090;-50
2022/10/08 08:34:24;;;;;;;8.13;1.63;;;;;;;9.06;100.00;101690.06;5027330;28;20028;-51
2022/10/08 08:36:54;;;;;;;6.00;0.35;;;;;;;9.21;100.00;101696.47;5029496;28;20033;-53
2022/10/08 08:39:30;;;;;;;3.65;0.95;;;;;;;9.34;100.00;101690.78;5031702;28;20380;-51
2022/10/08 08:42:17;;;;;;;13.43;0.57;;;;;;;9.40;100.00;101695.50;5031639;28;20037;-49
2022/10/08 08:44:48;;;;;;;4.72;1.02;;;;;;;9.57;100.00;101688.50;5030375;28;20467;-50
2022/10/08 08:47:16;;;;;;;6.97;0.82;;;;;;;9.72;100.00;101691.41;5034976;28;20128;-48
2022/10/08 08:49:44;;;;;;;7.78;0.28;;;;;;;9.80;100.00;101689.63;5041392;28;20610;-51
2022/10/08 08:52:13;;;;;;;7.80;0.70;;;;;;;9.91;100.00;101683.22;5039446;28;20022;-50
2022/10/08 08:54:39;;;;;;;5.50;0.85;;;;;;;10.11;100.00;101689.13;5037209;28;20560;-52
2022/10/08 08:57:21;;;;;;;3.35;0.40;;;;;;;10.24;100.00;101691.34;5038380;28;20048;-51
2022/10/08 08:59:51;;;;;;;7.53;1.05;;;;;;;10.37;100.00;101702.38;5035996;28;20026;-49
2022/10/08 09:02:27;;;;;;;4.55;0.40;;;;;;;10.47;100.00;101704.91;5037116;28;20034;-52
2022/10/08 09:05:02;;;;;;;13.68;0.85;;;;;;;10.58;100.00;101703.78;5032178;28;20032;-50
2022/10/08 09:07:43;;;;;;;7.28;0.90;;;;;;;10.75;100.00;101699.34;5034285;28;20025;-51
2022/10/08 09:10:15;;;;;;;2.75;0.13;;;;;;;10.85;100.00;101698.22;5037199;28;20046;-49
2022/10/08 09:12:42;;;;;;;4.07;0.77;;;;;;;10.85;100.00;101698.22;5032251;28;20113;-50
2022/10/08 09:15:31;;;;;;;6.78;0.85;;;;;;;10.87;100.00;101692.75;5032014;28;20035;-51
2022/10/08 09:18:01;;;;;;;12.18;1.75;;;;;;;11.00;100.00;101690.44;5038030;28;20083;-51
2022/10/08 09:20:26;;;;;;;5.40;0.43;;;;;;;11.11;100.00;101695.41;5033664;28;20048;-51
2022/10/08 09:22:53;;;;;;;8.60;0.50;;;;;;;11.16;100.00;101702.91;5035082;28;20658;-51
2022/10/08 09:25:30;;;;;;;10.57;0.85;;;;;;;11.17;100.00;101691.28;5031211;28;20061;-49
2022/10/08 09:27:55;;;;;;;3.25;1.02;;;;;;;11.28;100.00;101690.97;5033828;28;20049;-50
2022/10/08 09:30:23;;;;;;;1.65;0.20;;;;;;;11.36;100.00;101687.47;5040897;28;20043;-48
2022/10/08 09:32:50;;;;;;;4.95;0.60;;;;;;;11.39;100.00;101686.31;5044621;28;20381;-53
2022/10/08 09:35:15;;;;;;;1.75;0.57;;;;;;;11.44;100.00;101692.78;5040970;28;20585;-47
2022/10/08 09:37:45;;;;;;;5.18;0.40;;;;;;;11.49;100.00;101674.50;5043912;28;20108;-49
2022/10/08 09:40:10;;;;;;;2.58;0.52;;;;;;;11.58;100.00;101675.31;5036472;28;20043;-48
2022/10/08 09:42:35;;;;;;;8.15;1.05;;;;;;;11.72;100.00;101684.41;5038665;28;20393;-48
2022/10/08 09:45:02;;;;;;;6.90;1.70;;;;;;;11.76;100.00;101678.59;5032281;28;20068;-47
2022/10/08 09:47:29;;;;;;;4.25;0.95;;;;;;;11.80;100.00;101687.09;5036158;28;20036;-47
2022/10/08 09:50:18;;;;;;;2.95;0.55;;;;;;;11.86;100.00;101686.44;5033339;28;20116;-51
2022/10/08 09:52:45;;;;;;;6.22;0.35;;;;;;;11.88;100.00;101692.41;5031722;28;20029;-48
2022/10/08 09:55:25;;;;;;;7.05;0.55;;;;;;;11.96;100.00;101695.03;5035894;28;20044;-50
2022/10/08 09:57:56;;;;;;;4.78;0.47;;;;;;;11.97;100.00;101686.06;5030777;28;20124;-51
2022/10/08 10:00:56;;;;;;;9.63;1.45;;;;;;;12.12;100.00;101688.00;5035470;28;20508;-49
2022/10/08 10:03:22;;;;;;;7.32;3.00;;;;;;;12.26;100.00;101678.47;5030401;28;20047;-52
2022/10/08 10:05:54;;;;;;;13.05;2.13;;;;;;;12.25;100.00;101672.34;5032501;28;20486;-47
2022/10/08 10:08:42;;;;;;;5.47;1.15;;;;;;;12.25;100.00;101675.00;5034126;28;20024;-50
2022/10/08 10:11:12;;;;;;;11.55;2.30;;;;;;;12.34;100.00;101673.97;5030607;28;20053;-50
2022/10/08 10:13:39;;;;;;;2.55;0.77;;;;;;;12.49;100.00;101681.19;5034196;28;20486;-51
2022/10/08 10:16:14;;;;;;;6.22;0.52;;;;;;;12.66;100.00;101675.63;5036536;28;20479;-52
2022/10/08 10:19:08;;;;;;;4.32;0.88;;;;;;;12.60;100.00;101656.88;5028427;28;20227;-50
2022/10/08 10:21:55;;;;;;;5.88;0.50;;;;;;;12.64;100.00;101669.63;5026330;28;20400;-50
2022/10/08 10:24:37;;;;;;;1.35;0.20;;;;;;;12.76;100.00;101672.72;5033380;28;20390;-51
2022/10/08 10:27:10;;;;;;;1.08;0.00;;;;;;;12.84;100.00;101671.84;5026384;28;20037;-48
2022/10/08 10:29:47;;;;;;;6.15;0.68;;;;;;;12.94;100.00;101679.63;5028873;28;20039;-51
2022/10/08 10:32:19;;;;;;;2.72;0.17;;;;;;;12.93;100.00;101669.94;5031837;28;20033;-48
2022/10/08 10:35:10;;;;;;;1.63;1.13;;;;;;;13.01;100.00;101678.72;5035989;28;20036;-47
2022/10/08 10:37:46;;;;;;;1.35;0.45;;;;;;;12.89;100.00;101674.81;5022248;28;20032;-47
2022/10/08 10:40:26;;;;;;;3.97;0.52;;;;;;;12.86;100.00;101681.31;5034460;28;20482;-47
2022/10/08 10:43:09;;;;;;;14.98;2.10;;;;;;;13.18;100.00;101682.06;5035926;28;20037;-50
2022/10/08 10:45:38;;;;;;;4.22;0.13;;;;;;;13.38;100.00;101678.97;5037116;28;20040;-50
2022/10/08 10:48:06;;;;;;;1.48;0.70;;;;;;;13.45;100.00;101685.19;5026268;28;20029;-51
2022/10/08 10:50:49;;;;;;;8.40;0.85;;;;;;;13.51;100.00;101679.16;5033311;28;20034;-54
2022/10/08 10:53:18;;;;;;;3.97;0.95;;;;;;;13.50;100.00;101666.84;5037985;28;20718;-47
2022/10/08 10:56:03;;;;;;;5.40;1.15;;;;;;;13.47;100.00;101672.53;5036558;28;20029;-51
2022/10/08 10:58:51;;;;;;;4.97;0.47;;;;;;;13.47;100.00;101670.69;5039820;28;20033;-52
2022/10/08 11:01:35;;;;;;;3.88;1.48;;;;;;;13.64;100.00;101665.22;5035258;28;20045;-49
2022/10/08 11:04:12;;;;;;;3.20;1.17;;;;;;;13.71;100.00;101674.97;5040585;28;20025;-52
2022/10/08 11:07:05;;;;;;;2.35;0.60;;;;;;;13.86;100.00;101668.81;5041610;28;20116;-48
2022/10/08 11:09:57;;;;;;;2.13;0.65;;;;;;;14.00;100.00;101675.16;5037312;28;20518;-46
2022/10/08 11:12:27;;;;;;;7.70;1.27;;;;;;;13.85;100.00;101672.50;5041997;28;20111;-51
2022/10/08 11:15:26;;;;;;;4.30;0.57;;;;;;;13.89;100.00;101679.13;5041357;28;20029;-48
2022/10/08 11:18:09;;;;;;;2.95;0.40;;;;;;;14.00;100.00;101683.16;5025737;28;20817;-53
2022/10/08 11:20:52;;;;;;;4.63;0.20;;;;;;;14.26;100.00;101670.16;5037136;28;20156;-48
2022/10/08 11:23:35;;;;;;;4.60;0.30;;;;;;;14.41;100.00;101672.81;5032730;28;20378;-47
2022/10/08 11:26:09;;;;;;;4.40;0.73;;;;;;;14.49;100.00;101667.38;5036596;28;20025;-47
2022/10/08 11:28:41;;;;;;;4.35;1.08;;;;;;;14.42;100.00;101678.97;5035999;28;20085;-50
2022/10/08 11:31:14;;;;;;;6.75;0.50;;;;;;;14.50;100.00;101674.34;5040650;28;20067;-47
2022/10/08 11:33:41;;;;;;;8.13;1.17;;;;;;;14.66;100.00;101667.97;5042962;28;20060;-48
2022/10/08 11:36:18;;;;;;;5.20;0.55;;;;;;;14.82;100.00;101672.28;5037629;28;20029;-48
2022/10/08 11:38:58;;;;;;;7.35;0.98;;;;;;;14.73;100.00;101666.22;5037367;28;20392;-45